Siem Pilot — LCPF — position and weather

sailwx.info

Track history (hours):
 
Tides and Currents Weather Stations Pressure Air Temp Water Temp Dewpoint Dewpoint Depression Visibility Wind Speed Wind Dir Waves Ship Positions

Siem Pilot

Last reported at 2017-Jan-19 12:17 UTC. Time now 2017-Jan-22 05:46 UTC.
Position N 38°01' E 012°31'.

Length 88 m; draft 6.1 m.

Type: Law enforcement. MMSI: 257458000.

Date/timePositionNaut miles runAvg speedWind from/ knotsBaromVisibWave heightAir tempDewpointWater temp
2017-Jan-19 12:17N 38°01' E 012°31'0 0.0
2017-Jan-19 11:32N 38°01' E 012°31'0 0.0
2017-Jan-19 10:32N 38°01' E 012°31'0 0.0
2017-Jan-19 09:32N 38°01' E 012°31'0 0.0
2017-Jan-19 08:23N 38°01' E 012°31'0 0.0
2017-Jan-19 07:23N 38°01' E 012°31'0 0.0
2017-Jan-19 06:26N 38°01' E 012°31'0 0.0
2017-Jan-19 05:26N 38°01' E 012°31'0 0.0
2017-Jan-19 04:29N 38°01' E 012°31'0 0.0
2017-Jan-19 03:26N 38°01' E 012°31'0 0.0
2017-Jan-19 02:29N 38°01' E 012°31'0 0.0
2017-Jan-19 01:32N 38°01' E 012°31'0 0.0
2017-Jan-19 00:32N 38°01' E 012°31'0 0.0
2017-Jan-18 23:32N 38°01' E 012°31'0 0.0
2017-Jan-18 22:32N 38°01' E 012°31'0 0.0
2017-Jan-18 21:20N 38°01' E 012°31'0 0.0
2017-Jan-18 20:32N 38°01' E 012°31'0 0.0
2017-Jan-18 19:32N 38°01' E 012°31'0 0.0
2017-Jan-18 18:20N 38°01' E 012°31'0 0.0
2017-Jan-18 17:26N 38°01' E 012°31'0 0.0
2017-Jan-18 16:26N 38°01' E 012°31'0 0.0
2017-Jan-18 15:26N 38°01' E 012°31'0 0.0
2017-Jan-18 14:29N 38°01' E 012°31'0 0.0
2017-Jan-18 13:14N 38°01' E 012°31'0 0.0
2017-Jan-18 12:29N 38°01' E 012°31'0 0.0
2017-Jan-18 11:32N 38°01' E 012°31'0 0.0
2017-Jan-18 10:32N 38°01' E 012°31'0 0.0
2017-Jan-18 09:29N 38°01' E 012°31'0 0.0
2017-Jan-18 08:29N 38°01' E 012°31'0 0.0
2017-Jan-18 07:32N 38°01' E 012°31'0 0.0
2017-Jan-18 06:32N 38°01' E 012°31'0 0.0
2017-Jan-18 05:32N 38°01' E 012°31'0 0.0
2017-Jan-18 04:23N 38°01' E 012°31'0 0.0
2017-Jan-18 03:26N 38°01' E 012°31'0 0.0
2017-Jan-18 02:26N 38°01' E 012°31'0 0.0
2017-Jan-18 01:26N 38°01' E 012°31'0 0.0
2017-Jan-18 00:29N 38°01' E 012°31'0 0.0
2017-Jan-17 23:29N 38°01' E 012°31'0 0.0
2017-Jan-17 22:14N 38°01' E 012°31'0 0.0
2017-Jan-17 21:32N 38°01' E 012°31'0 0.0
2017-Jan-17 20:32N 38°01' E 012°31'0 0.0
2017-Jan-17 19:20N 38°01' E 012°31'0 0.0
2017-Jan-17 18:32N 38°01' E 012°31'0 0.0
2017-Jan-17 17:32N 38°01' E 012°31'0 0.0
2017-Jan-17 16:23N 38°01' E 012°31'0 0.0
2017-Jan-17 15:32N 38°01' E 012°31'0 0.0
2017-Jan-17 14:23N 38°01' E 012°31'0 0.2
2017-Jan-17 13:26N 38°01' E 012°31'0 0.0
2017-Jan-17 12:26N 38°01' E 012°31'0 0.0
2017-Jan-17 11:23N 38°01' E 012°31'0 0.0
2017-Jan-17 10:29N 38°01' E 012°31'0 0.0
2017-Jan-17 09:29N 38°01' E 012°31'0 0.0
2017-Jan-17 08:14N 38°01' E 012°31'0 0.0
2017-Jan-17 07:29N 38°01' E 012°31'0 0.0
2017-Jan-17 06:32N 38°01' E 012°31'0 0.0
2017-Jan-17 05:32N 38°01' E 012°31'0 0.0
2017-Jan-17 04:32N 38°01' E 012°31'0 0.0
2017-Jan-17 03:32N 38°01' E 012°31'0 0.0
2017-Jan-17 02:23N 38°01' E 012°31'0 0.0
2017-Jan-17 01:32N 38°01' E 012°31'0 0.0
2017-Jan-17 00:23N 38°01' E 012°31'0 0.0
2017-Jan-16 23:26N 38°01' E 012°31'0 0.0
2017-Jan-16 22:26N 38°01' E 012°31'0 0.0
2017-Jan-16 21:23N 38°01' E 012°31'0 0.0
2017-Jan-16 20:26N 38°01' E 012°31'0 0.0
2017-Jan-16 19:29N 38°01' E 012°31'0 0.0
2017-Jan-16 18:26N 38°01' E 012°31'1 0.8
2017-Jan-16 17:33N 38°00' E 012°30'8 8.1
2017-Jan-16 16:32N 38°02' E 012°20'  
2017-Jan-11 23:33N 36°37' E 013°53'9 9.2
2017-Jan-11 22:33N 36°37' E 014°04'9 9.3
2017-Jan-11 21:33N 36°35' E 014°16'9 9.2
2017-Jan-11 20:33N 36°35' E 014°27'9 9.4
2017-Jan-11 19:33N 36°35' E 014°39'  
Track history (hours):
 
Tides and Currents Weather Stations Pressure Air Temp Water Temp Dewpoint Dewpoint Depression Visibility Wind Speed Wind Dir Waves Ship Positions

Siem Pilot

Last reported at 2017-Jan-19 12:17 UTC. Time now 2017-Jan-22 05:46 UTC.
Position N 38°01' E 012°31'.

Length 88 m; draft 6.1 m.

Type: Law enforcement. MMSI: 257458000.

Date/timePositionNaut miles runAvg speedWind from/ knotsBaromVisibWave heightAir tempDewpointWater temp
2017-Jan-19 12:17N 38°01' E 012°31'0 0.0
2017-Jan-19 11:32N 38°01' E 012°31'0 0.0
2017-Jan-19 10:32N 38°01' E 012°31'0 0.0
2017-Jan-19 09:32N 38°01' E 012°31'0 0.0
2017-Jan-19 08:23N 38°01' E 012°31'0 0.0
2017-Jan-19 07:23N 38°01' E 012°31'0 0.0
2017-Jan-19 06:26N 38°01' E 012°31'0 0.0
2017-Jan-19 05:26N 38°01' E 012°31'0 0.0
2017-Jan-19 04:29N 38°01' E 012°31'0 0.0
2017-Jan-19 03:26N 38°01' E 012°31'0 0.0
2017-Jan-19 02:29N 38°01' E 012°31'0 0.0
2017-Jan-19 01:32N 38°01' E 012°31'0 0.0
2017-Jan-19 00:32N 38°01' E 012°31'0 0.0
2017-Jan-18 23:32N 38°01' E 012°31'0 0.0
2017-Jan-18 22:32N 38°01' E 012°31'0 0.0
2017-Jan-18 21:20N 38°01' E 012°31'0 0.0
2017-Jan-18 20:32N 38°01' E 012°31'0 0.0
2017-Jan-18 19:32N 38°01' E 012°31'0 0.0
2017-Jan-18 18:20N 38°01' E 012°31'0 0.0
2017-Jan-18 17:26N 38°01' E 012°31'0 0.0
2017-Jan-18 16:26N 38°01' E 012°31'0 0.0
2017-Jan-18 15:26N 38°01' E 012°31'0 0.0
2017-Jan-18 14:29N 38°01' E 012°31'0 0.0
2017-Jan-18 13:14N 38°01' E 012°31'0 0.0
2017-Jan-18 12:29N 38°01' E 012°31'0 0.0
2017-Jan-18 11:32N 38°01' E 012°31'0 0.0
2017-Jan-18 10:32N 38°01' E 012°31'0 0.0
2017-Jan-18 09:29N 38°01' E 012°31'0 0.0
2017-Jan-18 08:29N 38°01' E 012°31'0 0.0
2017-Jan-18 07:32N 38°01' E 012°31'0 0.0
2017-Jan-18 06:32N 38°01' E 012°31'0 0.0
2017-Jan-18 05:32N 38°01' E 012°31'0 0.0
2017-Jan-18 04:23N 38°01' E 012°31'0 0.0
2017-Jan-18 03:26N 38°01' E 012°31'0 0.0
2017-Jan-18 02:26N 38°01' E 012°31'0 0.0
2017-Jan-18 01:26N 38°01' E 012°31'0 0.0
2017-Jan-18 00:29N 38°01' E 012°31'0 0.0
2017-Jan-17 23:29N 38°01' E 012°31'0 0.0
2017-Jan-17 22:14N 38°01' E 012°31'0 0.0
2017-Jan-17 21:32N 38°01' E 012°31'0 0.0
2017-Jan-17 20:32N 38°01' E 012°31'0 0.0
2017-Jan-17 19:20N 38°01' E 012°31'0 0.0
2017-Jan-17 18:32N 38°01' E 012°31'0 0.0
2017-Jan-17 17:32N 38°01' E 012°31'0 0.0
2017-Jan-17 16:23N 38°01' E 012°31'0 0.0
2017-Jan-17 15:32N 38°01' E 012°31'0 0.0
2017-Jan-17 14:23N 38°01' E 012°31'0 0.2
2017-Jan-17 13:26N 38°01' E 012°31'0 0.0
2017-Jan-17 12:26N 38°01' E 012°31'0 0.0
2017-Jan-17 11:23N 38°01' E 012°31'0 0.0
2017-Jan-17 10:29N 38°01' E 012°31'0 0.0
2017-Jan-17 09:29N 38°01' E 012°31'0 0.0
2017-Jan-17 08:14N 38°01' E 012°31'0 0.0
2017-Jan-17 07:29N 38°01' E 012°31'0 0.0
2017-Jan-17 06:32N 38°01' E 012°31'0 0.0
2017-Jan-17 05:32N 38°01' E 012°31'0 0.0
2017-Jan-17 04:32N 38°01' E 012°31'0 0.0
2017-Jan-17 03:32N 38°01' E 012°31'0 0.0
2017-Jan-17 02:23N 38°01' E 012°31'0 0.0
2017-Jan-17 01:32N 38°01' E 012°31'0 0.0
2017-Jan-17 00:23N 38°01' E 012°31'0 0.0
2017-Jan-16 23:26N 38°01' E 012°31'0 0.0
2017-Jan-16 22:26N 38°01' E 012°31'0 0.0
2017-Jan-16 21:23N 38°01' E 012°31'0 0.0
2017-Jan-16 20:26N 38°01' E 012°31'0 0.0
2017-Jan-16 19:29N 38°01' E 012°31'0 0.0
2017-Jan-16 18:26N 38°01' E 012°31'1 0.8
2017-Jan-16 17:33N 38°00' E 012°30'8 8.1
2017-Jan-16 16:32N 38°02' E 012°20'  
2017-Jan-11 23:33N 36°37' E 013°53'9 9.2
2017-Jan-11 22:33N 36°37' E 014°04'9 9.3
2017-Jan-11 21:33N 36°35' E 014°16'9 9.2
2017-Jan-11 20:33N 36°35' E 014°27'9 9.4
2017-Jan-11 19:33N 36°35' E 014°39'  

Dump ship's entire track history